createdAt,value
2019-06-19T00:04:12.391Z,80.87
2019-06-19T00:09:53.949Z,79.27
2019-06-19T00:15:34.925Z,78.97
2019-06-19T00:21:15.688Z,82.07
2019-06-19T00:26:56.400Z,81.07
2019-06-19T00:32:28.051Z,78.37
2019-06-19T00:38:10.771Z,79.50
2019-06-19T00:43:51.249Z,80.20
2019-06-19T00:49:32.244Z,78.50
2019-06-19T00:55:34.757Z,80.10
2019-06-19T01:01:24.195Z,81.30
2019-06-19T01:07:04.715Z,79.37
2019-06-19T01:12:45.563Z,79.20
2019-06-19T01:18:26.568Z,79.10
2019-06-19T01:24:07.349Z,82.03
2019-06-19T01:30:08.889Z,81.07
2019-06-19T01:35:41.793Z,77.50
2019-06-19T01:41:31.881Z,80.57
2019-06-19T01:47:13.024Z,78.10
2019-06-19T01:53:12.186Z,83.63
2019-06-19T01:59:02.422Z,77.97
2019-06-19T02:04:52.229Z,81.27
2019-06-19T02:10:41.813Z,80.10
2019-06-19T02:16:32.105Z,82.87
2019-06-19T02:22:21.819Z,78.37
2019-06-19T02:28:11.639Z,81.23
2019-06-19T02:33:52.276Z,84.60
2019-06-19T02:39:42.224Z,81.00
2019-06-19T02:45:23.361Z,84.20
2019-06-19T02:51:13.060Z,80.40
2019-06-19T02:56:53.909Z,82.00
2019-06-19T03:02:43.680Z,80.47
2019-06-19T03:08:33.311Z,80.33
2019-06-19T03:14:23.138Z,79.77
2019-06-19T03:20:12.776Z,84.03
2019-06-19T03:26:02.488Z,78.07
2019-06-19T03:31:36.561Z,79.60
2019-06-19T03:37:16.908Z,77.70
2019-06-19T03:42:57.764Z,81.23
2019-06-19T03:48:38.796Z,78.07
2019-06-19T03:54:19.682Z,79.43
2019-06-19T04:00:00.272Z,77.87
2019-06-19T04:05:49.763Z,78.03
2019-06-19T04:11:30.335Z,75.37
2019-06-19T04:17:11.075Z,76.20
2019-06-19T04:22:51.687Z,74.37
2019-06-19T04:28:38.315Z,73.00
2019-06-19T04:34:10.454Z,71.77
2019-06-19T04:40:00.303Z,73.07
2019-06-19T04:45:50.244Z,73.87
2019-06-19T04:51:39.874Z,71.47
2019-06-19T04:57:20.439Z,74.90
2019-06-19T05:03:00.978Z,73.60
2019-06-19T05:08:48.402Z,73.20
2019-06-19T05:14:29.205Z,72.77
2019-06-19T05:20:18.602Z,74.80
2019-06-19T05:26:08.466Z,74.27
2019-06-19T05:31:58.577Z,72.83
2019-06-19T05:37:48.532Z,72.67
2019-06-19T05:43:29.584Z,74.00
2019-06-19T05:49:19.545Z,71.90
2019-06-19T05:55:09.354Z,73.50
2019-06-19T06:00:50.405Z,73.07
2019-06-19T06:06:40.187Z,72.80
2019-06-19T06:12:30.028Z,72.50
2019-06-19T06:18:19.483Z,72.63
2019-06-19T06:23:59.958Z,73.50
2019-06-19T06:29:49.677Z,72.57
2019-06-19T06:35:30.366Z,71.13
2019-06-19T06:41:10.920Z,72.70
2019-06-19T06:47:00.639Z,71.57
2019-06-19T06:52:46.726Z,73.37
2019-06-19T06:58:27.443Z,72.67
2019-06-19T07:04:08.709Z,72.37
2019-06-19T07:09:58.610Z,75.40
2019-06-19T07:15:42.379Z,73.30
2019-06-19T07:21:30.725Z,74.70
2019-06-19T07:27:20.754Z,74.00
2019-06-19T07:33:01.631Z,75.60
2019-06-19T07:38:42.451Z,77.90
2019-06-19T07:44:32.063Z,77.80
2019-06-19T07:50:21.616Z,74.43
2019-06-19T07:56:11.409Z,71.63
2019-06-19T08:02:04.455Z,75.30
2019-06-19T08:07:43.861Z,76.33
2019-06-19T08:13:24.434Z,72.20
2019-06-19T08:19:14.204Z,69.70
2019-06-19T08:25:03.976Z,74.23
2019-06-19T08:30:53.365Z,72.87
2019-06-19T08:36:43.143Z,73.77
2019-06-19T08:42:32.973Z,72.13
2019-06-19T08:48:22.799Z,76.20
2019-06-19T08:54:03.983Z,77.70
2019-06-19T08:59:44.841Z,74.60
2019-06-19T09:05:26.071Z,73.13
2019-06-19T09:11:13.965Z,73.37
2019-06-19T09:16:54.441Z,75.97
2019-06-19T09:22:35.313Z,72.50
2019-06-19T09:28:24.799Z,75.70
2019-06-19T09:34:05.345Z,69.87
2019-06-19T09:39:46.003Z,75.17
2019-06-19T09:45:26.780Z,76.80
2019-06-19T09:51:16.381Z,75.03
2019-06-19T09:57:05.851Z,71.77
2019-06-19T10:02:56.230Z,73.77
2019-06-19T10:08:38.103Z,74.73
2019-06-19T10:13:55.173Z,75.47
2019-06-19T10:19:44.817Z,79.57
2019-06-19T10:25:34.713Z,74.30
2019-06-19T10:31:24.606Z,75.20
2019-06-19T10:37:05.509Z,74.27
2019-06-19T10:42:45.999Z,76.50
2019-06-19T10:48:35.740Z,74.97
2019-06-19T10:54:16.226Z,75.67
2019-06-19T10:59:56.774Z,76.17
2019-06-19T11:05:40.020Z,75.20
2019-06-19T11:11:20.215Z,77.20
2019-06-19T11:17:02.750Z,76.30
2019-06-19T11:22:34.508Z,77.40
2019-06-19T11:28:15.328Z,78.13
2019-06-19T11:34:04.909Z,74.27
2019-06-19T11:39:46.017Z,80.30
2019-06-19T11:45:26.742Z,76.60
2019-06-19T11:51:07.846Z,75.47
2019-06-19T11:56:48.508Z,77.87
2019-06-19T12:02:29.185Z,74.13
2019-06-19T12:08:09.945Z,73.40
2019-06-19T12:13:59.679Z,77.37
2019-06-19T12:19:40.581Z,79.80
2019-06-19T12:25:12.646Z,75.97
2019-06-19T12:31:02.297Z,77.70
2019-06-19T12:36:42.801Z,76.20
2019-06-19T12:42:32.525Z,76.13
2019-06-19T12:48:13.491Z,75.73
2019-06-19T12:53:54.644Z,76.90
2019-06-19T12:59:35.510Z,76.03
2019-06-19T13:05:25.004Z,77.37
2019-06-19T13:11:05.818Z,76.77
2019-06-19T13:16:46.680Z,76.50
2019-06-19T13:22:27.296Z,77.20
2019-06-19T13:28:07.869Z,74.23
2019-06-19T13:33:48.641Z,72.10
2019-06-19T13:39:29.531Z,75.57
2019-06-19T13:45:10.614Z,74.90
2019-06-19T13:50:51.452Z,76.53
2019-06-19T13:56:32.011Z,76.70
2019-06-19T14:02:12.772Z,74.20
2019-06-19T14:07:54.206Z,74.60
2019-06-19T14:13:44.152Z,76.00
2019-06-19T14:19:33.822Z,74.27
2019-06-19T14:25:14.610Z,72.27
2019-06-19T14:31:04.232Z,70.87
2019-06-19T14:36:44.966Z,71.87
2019-06-19T14:42:25.679Z,73.17
2019-06-19T14:48:06.814Z,72.50
2019-06-19T14:50:34.780Z,74.97
2019-06-19T14:53:02.667Z,76.27
2019-06-19T14:55:30.748Z,72.80
2019-06-19T14:57:58.831Z,74.20
2019-06-19T15:00:30.640Z,73.00
2019-06-19T15:02:58.621Z,74.27
2019-06-19T15:05:26.741Z,73.20
2019-06-19T15:07:59.407Z,76.00
2019-06-19T15:10:24.457Z,76.37
2019-06-19T15:12:52.475Z,73.10
2019-06-19T15:15:20.430Z,75.00
2019-06-19T15:17:49.085Z,75.37
2019-06-19T15:20:16.992Z,76.67
2019-06-19T15:22:44.986Z,76.40
2019-06-19T15:25:13.776Z,75.07
2019-06-19T15:27:41.814Z,78.27
2019-06-19T15:33:22.414Z,78.93
2019-06-19T15:39:12.483Z,75.37
2019-06-19T15:45:02.951Z,77.10
2019-06-19T15:50:43.970Z,76.40
2019-06-19T15:56:24.598Z,76.17
2019-06-19T16:02:14.182Z,77.87
2019-06-19T16:08:04.203Z,76.20
2019-06-19T16:13:53.987Z,75.37
2019-06-19T16:19:43.955Z,79.07
2019-06-19T16:25:33.640Z,74.20
2019-06-19T16:31:14.710Z,74.10
2019-06-19T16:37:04.352Z,77.13
2019-06-19T16:42:54.358Z,75.80
2019-06-19T16:48:35.048Z,75.47
2019-06-19T16:54:16.059Z,76.90
2019-06-19T16:59:57.082Z,76.60
2019-06-19T17:05:37.905Z,76.33
2019-06-19T17:11:27.436Z,74.67
2019-06-19T17:17:17.270Z,73.50
2019-06-19T17:22:58.073Z,78.03
2019-06-19T17:28:47.749Z,74.17
2019-06-19T17:34:37.229Z,71.93
2019-06-19T17:40:26.820Z,73.20
2019-06-19T17:46:07.494Z,73.17
2019-06-19T17:51:48.210Z,71.47
2019-06-19T17:57:14.026Z,70.93
2019-06-19T18:02:54.785Z,71.40
2019-06-19T18:08:44.529Z,71.67
2019-06-19T18:14:25.802Z,71.60
2019-06-19T18:20:15.872Z,72.23
2019-06-19T18:26:06.076Z,73.83
2019-06-19T18:31:46.647Z,74.20
2019-06-19T18:37:36.327Z,74.30
2019-06-19T18:43:26.121Z,73.40
2019-06-19T18:49:15.835Z,72.87
2019-06-19T18:54:56.471Z,72.87
2019-06-19T19:00:22.243Z,73.17
2019-06-19T19:06:03.265Z,76.10
2019-06-19T19:11:44.186Z,73.77
2019-06-19T19:17:25.028Z,75.30
2019-06-19T19:23:05.513Z,73.50
2019-06-19T19:28:46.083Z,73.87
2019-06-19T19:34:27.164Z,72.73
2019-06-19T19:39:58.869Z,73.97
2019-06-19T19:45:39.827Z,78.03
2019-06-19T19:51:21.049Z,72.13
2019-06-19T19:57:02.245Z,72.97
2019-06-19T20:02:42.769Z,75.73
2019-06-19T20:08:23.405Z,71.83
2019-06-19T20:14:04.516Z,75.40
2019-06-19T20:19:54.220Z,76.97
2019-06-19T20:25:34.941Z,74.80
2019-06-19T20:31:15.819Z,73.57
2019-06-19T20:37:05.437Z,76.90
2019-06-19T20:42:45.944Z,73.27
2019-06-19T20:48:26.672Z,73.87
2019-06-19T20:54:07.773Z,75.93
2019-06-19T20:59:48.478Z,79.57
2019-06-19T21:05:29.531Z,75.00
2019-06-19T21:11:19.901Z,73.07
2019-06-19T21:16:52.169Z,73.50
2019-06-19T21:22:32.727Z,73.03
2019-06-19T21:28:13.517Z,73.10
2019-06-19T21:33:54.420Z,77.80
2019-06-19T21:39:26.383Z,75.87
2019-06-19T21:45:08.122Z,73.87
2019-06-19T21:50:49.244Z,74.00
2019-06-19T21:56:39.076Z,75.83
2019-06-19T22:02:20.053Z,76.10
2019-06-19T22:08:00.810Z,76.53
2019-06-19T22:13:32.430Z,78.27
2019-06-19T22:19:13.212Z,79.73
2019-06-19T22:24:54.035Z,78.80
2019-06-19T22:30:42.129Z,74.73
2019-06-19T22:36:22.879Z,76.90
2019-06-19T22:42:11.347Z,76.77
2019-06-19T22:47:45.676Z,78.10
2019-06-19T22:53:26.503Z,74.77
2019-06-19T22:59:07.067Z,80.67
2019-06-19T23:04:47.872Z,77.30
2019-06-19T23:10:28.653Z,78.00
2019-06-19T23:16:00.709Z,77.20
2019-06-19T23:21:50.640Z,76.20
2019-06-19T23:27:40.273Z,78.37
2019-06-19T23:33:30.169Z,78.47
2019-06-19T23:39:10.676Z,74.77
2019-06-19T23:45:00.391Z,76.83
2019-06-19T23:50:50.324Z,77.00
2019-06-19T23:56:39.893Z,76.80
